Terminal Aerodrome Forecast
Issued by NWS North Platte, NE

Home | Current Version | Previous Version | Graphics & Text | Print | Product List | Glossary On
Versions: 1 2 3 4 5 6 7 8 9 10 11 12 13 14 15 16 17 18 19 20 21 22 23
149
FTUS43 KLBF 220539
TAFVTN
TAF
KVTN 220539Z 2206/2306 26007KT P6SM SKC
     FM221500 28011KT P6SM SCT250
     FM221800 31013G18KT P6SM SCT250
     FM222200 31012KT P6SM SCT250
     FM230000 34008KT P6SM SCT100 BKN250=

USA.gov is the U.S. government's official web portal to all federal, state and local government web resources and services.